sensor_id;sensor_type;location;lat;lon;timestamp;temperature;humidity
3976;DHT22;2002;48.812;9.180;2023-01-15T00:03:51;16.10;1.00
3976;DHT22;2002;48.812;9.180;2023-01-15T00:06:17;16.10;1.00
3976;DHT22;2002;48.812;9.180;2023-01-15T00:08:43;16.10;1.00
3976;DHT22;2002;48.812;9.180;2023-01-15T00:11:09;16.00;1.00
3976;DHT22;2002;48.812;9.180;2023-01-15T00:13:34;16.00;1.00
3976;DHT22;2002;48.812;9.180;2023-01-15T00:16:09;16.00;1.00
3976;DHT22;2002;48.812;9.180;2023-01-15T00:18:36;16.00;1.00
3976;DHT22;2002;48.812;9.180;2023-01-15T00:21:04;16.00;1.00
3976;DHT22;2002;48.812;9.180;2023-01-15T00:23:30;16.10;1.00
3976;DHT22;2002;48.812;9.180;2023-01-15T00:26:16;16.10;1.00
3976;DHT22;2002;48.812;9.180;2023-01-15T00:29:00;16.30;1.00
3976;DHT22;2002;48.812;9.180;2023-01-15T00:31:27;16.50;1.00
3976;DHT22;2002;48.812;9.180;2023-01-15T00:33:53;16.70;1.00
3976;DHT22;2002;48.812;9.180;2023-01-15T00:36:19;16.70;1.00
3976;DHT22;2002;48.812;9.180;2023-01-15T00:38:45;16.70;1.00
3976;DHT22;2002;48.812;9.180;2023-01-15T00:41:11;16.60;1.00
3976;DHT22;2002;48.812;9.180;2023-01-15T00:43:36;16.60;1.00
3976;DHT22;2002;48.812;9.180;2023-01-15T00:46:02;16.70;1.00
3976;DHT22;2002;48.812;9.180;2023-01-15T00:48:30;16.60;1.00
3976;DHT22;2002;48.812;9.180;2023-01-15T00:50:55;16.50;1.00
3976;DHT22;2002;48.812;9.180;2023-01-15T00:53:21;16.50;1.00
3976;DHT22;2002;48.812;9.180;2023-01-15T00:55:47;16.40;1.00
3976;DHT22;2002;48.812;9.180;2023-01-15T00:58:12;16.40;1.00
3976;DHT22;2002;48.812;9.180;2023-01-15T01:00:38;16.40;1.00
3976;DHT22;2002;48.812;9.180;2023-01-15T01:03:03;16.40;1.00
3976;DHT22;2002;48.812;9.180;2023-01-15T01:05:30;16.30;1.00
3976;DHT22;2002;48.812;9.180;2023-01-15T01:07:56;16.30;1.00
3976;DHT22;2002;48.812;9.180;2023-01-15T01:10:23;16.30;1.00
3976;DHT22;2002;48.812;9.180;2023-01-15T01:12:49;16.30;1.00
3976;DHT22;2002;48.812;9.180;2023-01-15T01:15:20;16.20;1.00
3976;DHT22;2002;48.812;9.180;2023-01-15T01:17:46;16.20;1.00
3976;DHT22;2002;48.812;9.180;2023-01-15T01:20:12;16.20;1.00
3976;DHT22;2002;48.812;9.180;2023-01-15T01:22:38;16.20;1.00
3976;DHT22;2002;48.812;9.180;2023-01-15T01:25:05;16.20;1.00
3976;DHT22;2002;48.812;9.180;2023-01-15T01:27:30;16.20;1.00
3976;DHT22;2002;48.812;9.180;2023-01-15T01:29:56;16.10;1.00
3976;DHT22;2002;48.812;9.180;2023-01-15T01:32:21;16.10;1.00
3976;DHT22;2002;48.812;9.180;2023-01-15T01:34:47;16.10;1.00
3976;DHT22;2002;48.812;9.180;2023-01-15T01:37:13;16.10;1.00
3976;DHT22;2002;48.812;9.180;2023-01-15T01:39:38;16.20;1.00
3976;DHT22;2002;48.812;9.180;2023-01-15T01:42:11;16.10;1.00
3976;DHT22;2002;48.812;9.180;2023-01-15T01:47:09;16.10;1.00
3976;DHT22;2002;48.812;9.180;2023-01-15T01:49:37;16.10;1.00
3976;DHT22;2002;48.812;9.180;2023-01-15T01:52:08;16.10;1.00
3976;DHT22;2002;48.812;9.180;2023-01-15T01:54:37;16.00;1.00
3976;DHT22;2002;48.812;9.180;2023-01-15T01:57:03;16.00;1.00
3976;DHT22;2002;48.812;9.180;2023-01-15T01:59:31;16.10;1.00
3976;DHT22;2002;48.812;9.180;2023-01-15T02:01:57;16.00;1.00
3976;DHT22;2002;48.812;9.180;2023-01-15T02:04:24;16.00;1.00
3976;DHT22;2002;48.812;9.180;2023-01-15T02:06:51;16.00;1.00
3976;DHT22;2002;48.812;9.180;2023-01-15T02:09:16;16.10;1.00
3976;DHT22;2002;48.812;9.180;2023-01-15T02:11:42;16.20;1.00
3976;DHT22;2002;48.812;9.180;2023-01-15T02:17:03;16.60;1.00
3976;DHT22;2002;48.812;9.180;2023-01-15T02:20:01;16.70;1.00
3976;DHT22;2002;48.812;9.180;2023-01-15T02:23:09;16.70;1.00
3976;DHT22;2002;48.812;9.180;2023-01-15T02:28:31;16.60;1.00
3976;DHT22;2002;48.812;9.180;2023-01-15T02:31:09;16.60;1.00
3976;DHT22;2002;48.812;9.180;2023-01-15T02:33:40;16.60;1.00
3976;DHT22;2002;48.812;9.180;2023-01-15T02:36:11;16.50;1.00
3976;DHT22;2002;48.812;9.180;2023-01-15T02:38:42;16.50;1.00
3976;DHT22;2002;48.812;9.180;2023-01-15T02:41:10;16.40;1.00
3976;DHT22;2002;48.812;9.180;2023-01-15T02:43:46;16.40;1.00
3976;DHT22;2002;48.812;9.180;2023-01-15T02:46:15;16.40;1.00
3976;DHT22;2002;48.812;9.180;2023-01-15T02:48:45;16.30;1.00
3976;DHT22;2002;48.812;9.180;2023-01-15T02:51:15;16.30;1.00
3976;DHT22;2002;48.812;9.180;2023-01-15T02:53:43;16.30;1.00
3976;DHT22;2002;48.812;9.180;2023-01-15T02:56:19;16.30;1.00
3976;DHT22;2002;48.812;9.180;2023-01-15T02:58:48;16.30;1.00
3976;DHT22;2002;48.812;9.180;2023-01-15T03:01:19;16.20;1.00
3976;DHT22;2002;48.812;9.180;2023-01-15T03:03:54;16.20;1.00
3976;DHT22;2002;48.812;9.180;2023-01-15T03:09:21;16.20;1.00
3976;DHT22;2002;48.812;9.180;2023-01-15T03:12:06;16.20;1.00
3976;DHT22;2002;48.812;9.180;2023-01-15T03:14:48;16.10;1.00
3976;DHT22;2002;48.812;9.180;2023-01-15T03:17:37;16.20;1.00
3976;DHT22;2002;48.812;9.180;2023-01-15T03:20:22;16.10;1.00
3976;DHT22;2002;48.812;9.180;2023-01-15T03:22:53;16.10;1.00
3976;DHT22;2002;48.812;9.180;2023-01-15T03:25:24;16.10;1.00
3976;DHT22;2002;48.812;9.180;2023-01-15T03:27:52;16.10;1.00
3976;DHT22;2002;48.812;9.180;2023-01-15T03:30:21;16.00;1.00
3976;DHT22;2002;48.812;9.180;2023-01-15T03:32:47;16.00;1.00
3976;DHT22;2002;48.812;9.180;2023-01-15T03:35:39;16.10;1.00
3976;DHT22;2002;48.812;9.180;2023-01-15T03:38:06;16.00;1.00
3976;DHT22;2002;48.812;9.180;2023-01-15T03:40:33;16.00;1.00
3976;DHT22;2002;48.812;9.180;2023-01-15T03:43:05;16.00;1.00
3976;DHT22;2002;48.812;9.180;2023-01-15T03:45:53;16.00;1.00
3976;DHT22;2002;48.812;9.180;2023-01-15T03:48:35;16.00;1.00
3976;DHT22;2002;48.812;9.180;2023-01-15T03:51:09;16.00;1.00
3976;DHT22;2002;48.812;9.180;2023-01-15T03:53:40;16.10;1.00
3976;DHT22;2002;48.812;9.180;2023-01-15T03:56:18;16.20;1.00
3976;DHT22;2002;48.812;9.180;2023-01-15T03:58:52;16.40;1.00
3976;DHT22;2002;48.812;9.180;2023-01-15T04:01:22;16.50;1.00
3976;DHT22;2002;48.812;9.180;2023-01-15T04:03:51;16.50;1.00
3976;DHT22;2002;48.812;9.180;2023-01-15T04:06:17;16.60;1.00
3976;DHT22;2002;48.812;9.180;2023-01-15T04:08:44;16.60;1.00
3976;DHT22;2002;48.812;9.180;2023-01-15T04:11:10;16.50;1.00
3976;DHT22;2002;48.812;9.180;2023-01-15T04:13:36;16.50;1.00
3976;DHT22;2002;48.812;9.180;2023-01-15T04:16:02;16.50;1.00
3976;DHT22;2002;48.812;9.180;2023-01-15T04:18:27;16.50;1.00
3976;DHT22;2002;48.812;9.180;2023-01-15T04:20:53;16.40;1.00
3976;DHT22;2002;48.812;9.180;2023-01-15T04:23:20;16.40;1.00
3976;DHT22;2002;48.812;9.180;2023-01-15T04:25:46;16.40;1.00
3976;DHT22;2002;48.812;9.180;2023-01-15T04:28:11;16.30;1.00
3976;DHT22;2002;48.812;9.180;2023-01-15T04:30:37;16.30;1.00
3976;DHT22;2002;48.812;9.180;2023-01-15T04:33:04;16.30;1.00
3976;DHT22;2002;48.812;9.180;2023-01-15T04:35:29;16.20;1.00
3976;DHT22;2002;48.812;9.180;2023-01-15T04:37:56;16.20;1.00
3976;DHT22;2002;48.812;9.180;2023-01-15T04:40:22;16.20;1.00
3976;DHT22;2002;48.812;9.180;2023-01-15T04:43:11;16.20;1.00
3976;DHT22;2002;48.812;9.180;2023-01-15T04:45:55;16.20;1.00
3976;DHT22;2002;48.812;9.180;2023-01-15T04:48:21;16.10;1.00
3976;DHT22;2002;48.812;9.180;2023-01-15T04:50:47;16.10;1.00
3976;DHT22;2002;48.812;9.180;2023-01-15T04:53:13;16.10;1.00
3976;DHT22;2002;48.812;9.180;2023-01-15T04:55:39;16.10;1.00
3976;DHT22;2002;48.812;9.180;2023-01-15T04:58:04;16.10;1.00
3976;DHT22;2002;48.812;9.180;2023-01-15T05:00:30;16.10;1.00
3976;DHT22;2002;48.812;9.180;2023-01-15T05:02:56;16.10;1.00
3976;DHT22;2002;48.812;9.180;2023-01-15T05:05:21;16.10;1.00
3976;DHT22;2002;48.812;9.180;2023-01-15T05:07:47;16.00;1.00
3976;DHT22;2002;48.812;9.180;2023-01-15T05:10:12;16.10;1.00
3976;DHT22;2002;48.812;9.180;2023-01-15T05:12:38;16.00;1.00
3976;DHT22;2002;48.812;9.180;2023-01-15T05:15:04;16.00;1.00
3976;DHT22;2002;48.812;9.180;2023-01-15T05:17:31;16.00;1.00
3976;DHT22;2002;48.812;9.180;2023-01-15T05:19:57;16.00;1.00
3976;DHT22;2002;48.812;9.180;2023-01-15T05:22:23;16.00;1.00
3976;DHT22;2002;48.812;9.180;2023-01-15T05:24:48;16.00;1.00
3976;DHT22;2002;48.812;9.180;2023-01-15T05:27:14;16.00;1.00
3976;DHT22;2002;48.812;9.180;2023-01-15T05:29:39;16.10;1.00
3976;DHT22;2002;48.812;9.180;2023-01-15T05:32:05;16.10;1.00
3976;DHT22;2002;48.812;9.180;2023-01-15T05:34:30;16.20;1.00
3976;DHT22;2002;48.812;9.180;2023-01-15T05:36:56;16.40;1.00
3976;DHT22;2002;48.812;9.180;2023-01-15T05:39:22;16.50;1.00
3976;DHT22;2002;48.812;9.180;2023-01-15T05:41:47;16.60;1.00
3976;DHT22;2002;48.812;9.180;2023-01-15T05:44:14;16.60;1.00
3976;DHT22;2002;48.812;9.180;2023-01-15T05:46:41;16.60;1.00
3976;DHT22;2002;48.812;9.180;2023-01-15T05:49:10;16.60;1.00
3976;DHT22;2002;48.812;9.180;2023-01-15T05:51:37;16.60;1.00
3976;DHT22;2002;48.812;9.180;2023-01-15T05:54:04;16.50;1.00
3976;DHT22;2002;48.812;9.180;2023-01-15T05:56:30;16.50;1.00
3976;DHT22;2002;48.812;9.180;2023-01-15T05:58:56;16.50;1.00
3976;DHT22;2002;48.812;9.180;2023-01-15T06:01:22;16.50;1.00
3976;DHT22;2002;48.812;9.180;2023-01-15T06:03:47;16.40;1.00
3976;DHT22;2002;48.812;9.180;2023-01-15T06:06:16;16.40;1.00
3976;DHT22;2002;48.812;9.180;2023-01-15T06:08:42;16.40;1.00
3976;DHT22;2002;48.812;9.180;2023-01-15T06:11:07;16.30;1.00
3976;DHT22;2002;48.812;9.180;2023-01-15T06:13:33;16.30;1.00
3976;DHT22;2002;48.812;9.180;2023-01-15T06:15:59;16.30;1.00
3976;DHT22;2002;48.812;9.180;2023-01-15T06:18:25;16.20;1.00
3976;DHT22;2002;48.812;9.180;2023-01-15T06:20:51;16.20;1.00
3976;DHT22;2002;48.812;9.180;2023-01-15T06:23:17;16.20;1.00
3976;DHT22;2002;48.812;9.180;2023-01-15T06:25:43;16.20;1.00
3976;DHT22;2002;48.812;9.180;2023-01-15T06:28:08;16.20;1.00
3976;DHT22;2002;48.812;9.180;2023-01-15T06:30:35;16.10;1.00
3976;DHT22;2002;48.812;9.180;2023-01-15T06:33:01;16.10;1.00
3976;DHT22;2002;48.812;9.180;2023-01-15T06:35:27;16.10;1.00
3976;DHT22;2002;48.812;9.180;2023-01-15T06:37:53;16.10;1.00
3976;DHT22;2002;48.812;9.180;2023-01-15T06:40:18;16.10;1.00
3976;DHT22;2002;48.812;9.180;2023-01-15T06:42:44;16.10;1.00
3976;DHT22;2002;48.812;9.180;2023-01-15T06:45:36;16.10;1.00
3976;DHT22;2002;48.812;9.180;2023-01-15T06:48:20;16.10;1.00
3976;DHT22;2002;48.812;9.180;2023-01-15T06:50:46;16.00;1.00
3976;DHT22;2002;48.812;9.180;2023-01-15T06:53:11;16.00;1.00
3976;DHT22;2002;48.812;9.180;2023-01-15T06:55:38;16.00;1.00
3976;DHT22;2002;48.812;9.180;2023-01-15T06:58:04;16.00;1.00
3976;DHT22;2002;48.812;9.180;2023-01-15T07:00:29;16.00;1.00
3976;DHT22;2002;48.812;9.180;2023-01-15T07:02:58;16.00;1.00
3976;DHT22;2002;48.812;9.180;2023-01-15T07:05:23;16.00;1.00
3976;DHT22;2002;48.812;9.180;2023-01-15T07:07:49;16.00;1.00
3976;DHT22;2002;48.812;9.180;2023-01-15T07:10:15;16.00;1.00
3976;DHT22;2002;48.812;9.180;2023-01-15T07:12:40;16.00;1.00
3976;DHT22;2002;48.812;9.180;2023-01-15T07:15:06;16.10;1.00
3976;DHT22;2002;48.812;9.180;2023-01-15T07:17:32;16.20;1.00
3976;DHT22;2002;48.812;9.180;2023-01-15T07:19:57;16.40;1.00
3976;DHT22;2002;48.812;9.180;2023-01-15T07:22:23;16.50;1.00
3976;DHT22;2002;48.812;9.180;2023-01-15T07:24:49;16.60;1.00
3976;DHT22;2002;48.812;9.180;2023-01-15T07:27:14;16.70;1.00
3976;DHT22;2002;48.812;9.180;2023-01-15T07:29:40;16.70;1.00
3976;DHT22;2002;48.812;9.180;2023-01-15T07:32:05;16.60;1.00
3976;DHT22;2002;48.812;9.180;2023-01-15T07:34:31;16.60;1.00
3976;DHT22;2002;48.812;9.180;2023-01-15T07:36:56;16.60;1.00
3976;DHT22;2002;48.812;9.180;2023-01-15T07:39:22;16.60;1.00
3976;DHT22;2002;48.812;9.180;2023-01-15T07:41:47;16.50;1.00
3976;DHT22;2002;48.812;9.180;2023-01-15T07:44:32;16.50;1.00
3976;DHT22;2002;48.812;9.180;2023-01-15T07:47:18;16.50;1.00
3976;DHT22;2002;48.812;9.180;2023-01-15T07:50:06;16.40;1.00
3976;DHT22;2002;48.812;9.180;2023-01-15T07:52:32;16.40;1.00
3976;DHT22;2002;48.812;9.180;2023-01-15T07:54:58;16.30;1.00
3976;DHT22;2002;48.812;9.180;2023-01-15T07:57:23;16.30;1.00
3976;DHT22;2002;48.812;9.180;2023-01-15T07:59:49;16.30;1.00
3976;DHT22;2002;48.812;9.180;2023-01-15T08:02:16;16.30;1.00
3976;DHT22;2002;48.812;9.180;2023-01-15T08:04:41;16.30;1.00
3976;DHT22;2002;48.812;9.180;2023-01-15T08:07:07;16.20;1.00
3976;DHT22;2002;48.812;9.180;2023-01-15T08:09:33;16.20;1.00
3976;DHT22;2002;48.812;9.180;2023-01-15T08:12:00;16.20;1.00
3976;DHT22;2002;48.812;9.180;2023-01-15T08:14:45;16.20;1.00
3976;DHT22;2002;48.812;9.180;2023-01-15T08:17:32;16.20;1.00
3976;DHT22;2002;48.812;9.180;2023-01-15T08:19:57;16.10;1.00
3976;DHT22;2002;48.812;9.180;2023-01-15T08:22:23;16.10;1.00
3976;DHT22;2002;48.812;9.180;2023-01-15T08:24:48;16.10;1.00
3976;DHT22;2002;48.812;9.180;2023-01-15T08:27:14;16.10;1.00
3976;DHT22;2002;48.812;9.180;2023-01-15T08:29:39;16.10;1.00
3976;DHT22;2002;48.812;9.180;2023-01-15T08:32:05;16.10;1.00
3976;DHT22;2002;48.812;9.180;2023-01-15T08:34:30;16.10;1.00
3976;DHT22;2002;48.812;9.180;2023-01-15T08:36:56;16.00;1.00
3976;DHT22;2002;48.812;9.180;2023-01-15T08:39:25;16.00;1.00
3976;DHT22;2002;48.812;9.180;2023-01-15T08:41:51;16.00;1.00
3976;DHT22;2002;48.812;9.180;2023-01-15T08:44:16;16.00;1.00
3976;DHT22;2002;48.812;9.180;2023-01-15T08:46:42;16.00;1.00
3976;DHT22;2002;48.812;9.180;2023-01-15T08:49:10;16.00;1.00
3976;DHT22;2002;48.812;9.180;2023-01-15T08:51:36;16.00;1.00
3976;DHT22;2002;48.812;9.180;2023-01-15T08:54:02;16.00;1.00
3976;DHT22;2002;48.812;9.180;2023-01-15T08:56:27;16.00;1.00
3976;DHT22;2002;48.812;9.180;2023-01-15T08:58:53;16.00;1.00
3976;DHT22;2002;48.812;9.180;2023-01-15T09:01:18;16.10;1.00
3976;DHT22;2002;48.812;9.180;2023-01-15T09:03:44;16.30;1.00
3976;DHT22;2002;48.812;9.180;2023-01-15T09:06:10;16.50;1.00
3976;DHT22;2002;48.812;9.180;2023-01-15T09:08:36;16.60;1.00
3976;DHT22;2002;48.812;9.180;2023-01-15T09:11:03;16.70;1.00
3976;DHT22;2002;48.812;9.180;2023-01-15T09:13:30;16.80;1.00
3976;DHT22;2002;48.812;9.180;2023-01-15T09:16:00;16.70;1.00
3976;DHT22;2002;48.812;9.180;2023-01-15T09:18:26;16.70;1.00
3976;DHT22;2002;48.812;9.180;2023-01-15T09:20:51;16.70;1.00
3976;DHT22;2002;48.812;9.180;2023-01-15T09:23:17;16.60;1.00
3976;DHT22;2002;48.812;9.180;2023-01-15T09:25:57;16.60;1.00
3976;DHT22;2002;48.812;9.180;2023-01-15T09:28:23;16.50;1.00
3976;DHT22;2002;48.812;9.180;2023-01-15T09:30:48;16.50;1.00
3976;DHT22;2002;48.812;9.180;2023-01-15T09:33:15;16.40;1.00
3976;DHT22;2002;48.812;9.180;2023-01-15T09:35:42;16.40;1.00
3976;DHT22;2002;48.812;9.180;2023-01-15T09:38:11;16.40;1.00
3976;DHT22;2002;48.812;9.180;2023-01-15T09:40:59;16.40;1.00
3976;DHT22;2002;48.812;9.180;2023-01-15T09:43:55;16.30;1.00
3976;DHT22;2002;48.812;9.180;2023-01-15T09:46:37;16.30;1.00
3976;DHT22;2002;48.812;9.180;2023-01-15T09:55:02;16.20;1.00
3976;DHT22;2002;48.812;9.180;2023-01-15T09:57:30;16.20;1.00
3976;DHT22;2002;48.812;9.180;2023-01-15T09:59:57;16.20;1.00
3976;DHT22;2002;48.812;9.180;2023-01-15T10:02:39;16.20;1.00
3976;DHT22;2002;48.812;9.180;2023-01-15T10:05:15;16.10;1.00
3976;DHT22;2002;48.812;9.180;2023-01-15T10:07:50;16.10;1.00
3976;DHT22;2002;48.812;9.180;2023-01-15T10:10:21;16.10;1.00
3976;DHT22;2002;48.812;9.180;2023-01-15T10:12:52;16.10;1.00
3976;DHT22;2002;48.812;9.180;2023-01-15T10:17:52;16.10;1.00
3976;DHT22;2002;48.812;9.180;2023-01-15T10:23:13;16.10;1.00
3976;DHT22;2002;48.812;9.180;2023-01-15T10:25:46;16.10;1.00
3976;DHT22;2002;48.812;9.180;2023-01-15T10:28:31;16.10;1.00
3976;DHT22;2002;48.812;9.180;2023-01-15T10:31:04;16.00;1.00
3976;DHT22;2002;48.812;9.180;2023-01-15T10:36:38;16.10;1.00
3976;DHT22;2002;48.812;9.180;2023-01-15T10:39:33;16.00;1.00
3976;DHT22;2002;48.812;9.180;2023-01-15T10:44:45;16.00;1.00
3976;DHT22;2002;48.812;9.180;2023-01-15T10:47:15;16.00;1.00
3976;DHT22;2002;48.812;9.180;2023-01-15T10:49:42;16.00;1.00
3976;DHT22;2002;48.812;9.180;2023-01-15T10:52:23;16.10;1.00
3976;DHT22;2002;48.812;9.180;2023-01-15T10:54:54;16.40;1.00
3976;DHT22;2002;48.812;9.180;2023-01-15T11:00:14;16.80;1.00
3976;DHT22;2002;48.812;9.180;2023-01-15T11:02:43;16.80;1.00
3976;DHT22;2002;48.812;9.180;2023-01-15T11:05:17;16.80;1.00
3976;DHT22;2002;48.812;9.180;2023-01-15T11:07:49;16.80;1.00
3976;DHT22;2002;48.812;9.180;2023-01-15T11:10:18;16.80;1.00
3976;DHT22;2002;48.812;9.180;2023-01-15T11:15:33;16.60;1.00
3976;DHT22;2002;48.812;9.180;2023-01-15T11:18:23;16.60;1.00
3976;DHT22;2002;48.812;9.180;2023-01-15T11:21:17;16.60;1.00
3976;DHT22;2002;48.812;9.180;2023-01-15T11:23:43;16.50;1.00
3976;DHT22;2002;48.812;9.180;2023-01-15T11:26:16;16.50;1.00
3976;DHT22;2002;48.812;9.180;2023-01-15T11:28:45;16.40;1.00
3976;DHT22;2002;48.812;9.180;2023-01-15T11:31:12;16.40;1.00
3976;DHT22;2002;48.812;9.180;2023-01-15T11:33:38;16.40;1.00
3976;DHT22;2002;48.812;9.180;2023-01-15T11:36:22;16.30;1.00
3976;DHT22;2002;48.812;9.180;2023-01-15T11:38:49;16.30;1.00
3976;DHT22;2002;48.812;9.180;2023-01-15T11:43:57;16.30;1.00
3976;DHT22;2002;48.812;9.180;2023-01-15T11:46:41;16.30;1.00
3976;DHT22;2002;48.812;9.180;2023-01-15T11:49:28;16.20;1.00
3976;DHT22;2002;48.812;9.180;2023-01-15T11:52:15;16.20;1.00
3976;DHT22;2002;48.812;9.180;2023-01-15T11:54:44;16.20;1.00
3976;DHT22;2002;48.812;9.180;2023-01-15T11:57:22;16.20;1.00
3976;DHT22;2002;48.812;9.180;2023-01-15T11:59:49;16.10;1.00
3976;DHT22;2002;48.812;9.180;2023-01-15T12:02:33;16.10;1.00
3976;DHT22;2002;48.812;9.180;2023-01-15T12:05:24;16.10;1.00
3976;DHT22;2002;48.812;9.180;2023-01-15T12:07:52;16.10;1.00
3976;DHT22;2002;48.812;9.180;2023-01-15T12:10:34;16.10;1.00
3976;DHT22;2002;48.812;9.180;2023-01-15T12:16:29;16.10;1.00
3976;DHT22;2002;48.812;9.180;2023-01-15T12:33:24;16.00;1.00
3976;DHT22;2002;48.812;9.180;2023-01-15T12:36:13;16.00;1.00
3976;DHT22;2002;48.812;9.180;2023-01-15T12:38:53;16.00;1.00
3976;DHT22;2002;48.812;9.180;2023-01-15T12:44:15;16.30;1.00
3976;DHT22;2002;48.812;9.180;2023-01-15T12:47:00;16.60;1.00
3976;DHT22;2002;48.812;9.180;2023-01-15T12:52:08;16.80;1.00
3976;DHT22;2002;48.812;9.180;2023-01-15T12:54:43;16.80;1.00
3976;DHT22;2002;48.812;9.180;2023-01-15T12:57:17;16.80;1.00
3976;DHT22;2002;48.812;9.180;2023-01-15T12:59:57;16.70;1.00
3976;DHT22;2002;48.812;9.180;2023-01-15T13:02:53;16.70;1.00
3976;DHT22;2002;48.812;9.180;2023-01-15T13:05:31;16.60;1.00
3976;DHT22;2002;48.812;9.180;2023-01-15T13:08:12;16.60;1.00
3976;DHT22;2002;48.812;9.180;2023-01-15T13:10:41;16.50;1.00
3976;DHT22;2002;48.812;9.180;2023-01-15T13:13:20;16.50;1.00
3976;DHT22;2002;48.812;9.180;2023-01-15T13:16:02;16.40;1.00
3976;DHT22;2002;48.812;9.180;2023-01-15T13:21:17;16.40;1.00
3976;DHT22;2002;48.812;9.180;2023-01-15T13:26:56;16.30;1.00
3976;DHT22;2002;48.812;9.180;2023-01-15T13:29:51;16.30;1.00
3976;DHT22;2002;48.812;9.180;2023-01-15T13:32:31;16.30;1.00
3976;DHT22;2002;48.812;9.180;2023-01-15T13:35:24;16.20;1.00
3976;DHT22;2002;48.812;9.180;2023-01-15T13:37:54;16.20;1.00
3976;DHT22;2002;48.812;9.180;2023-01-15T13:40:35;16.20;1.00
3976;DHT22;2002;48.812;9.180;2023-01-15T13:43:05;16.20;1.00
3976;DHT22;2002;48.812;9.180;2023-01-15T13:45:35;16.20;1.00
3976;DHT22;2002;48.812;9.180;2023-01-15T13:50:49;16.10;1.00
3976;DHT22;2002;48.812;9.180;2023-01-15T13:53:26;16.10;1.00
3976;DHT22;2002;48.812;9.180;2023-01-15T13:55:59;16.10;1.00
3976;DHT22;2002;48.812;9.180;2023-01-15T13:58:31;16.10;1.00
3976;DHT22;2002;48.812;9.180;2023-01-15T14:04:01;16.10;1.00
3976;DHT22;2002;48.812;9.180;2023-01-15T14:06:43;16.00;1.00
3976;DHT22;2002;48.812;9.180;2023-01-15T14:09:11;16.10;1.00
3976;DHT22;2002;48.812;9.180;2023-01-15T14:11:38;16.00;1.00
3976;DHT22;2002;48.812;9.180;2023-01-15T14:20:02;16.00;1.00
3976;DHT22;2002;48.812;9.180;2023-01-15T14:25:54;16.00;1.00
3976;DHT22;2002;48.812;9.180;2023-01-15T14:39:31;16.70;1.00
3976;DHT22;2002;48.812;9.180;2023-01-15T14:45:37;16.80;1.00
3976;DHT22;2002;48.812;9.180;2023-01-15T14:50:48;16.70;1.00
3976;DHT22;2002;48.812;9.180;2023-01-15T14:53:32;16.70;1.00
3976;DHT22;2002;48.812;9.180;2023-01-15T14:56:19;16.60;1.00
3976;DHT22;2002;48.812;9.180;2023-01-15T15:01:36;16.50;1.00
3976;DHT22;2002;48.812;9.180;2023-01-15T15:04:10;16.50;1.00
3976;DHT22;2002;48.812;9.180;2023-01-15T15:06:45;16.50;1.00
3976;DHT22;2002;48.812;9.180;2023-01-15T15:09:12;16.40;1.00
3976;DHT22;2002;48.812;9.180;2023-01-15T15:11:44;16.40;1.00
3976;DHT22;2002;48.812;9.180;2023-01-15T15:14:30;16.30;1.00
3976;DHT22;2002;48.812;9.180;2023-01-15T15:16:59;16.30;1.00
3976;DHT22;2002;48.812;9.180;2023-01-15T15:19:34;16.30;1.00
3976;DHT22;2002;48.812;9.180;2023-01-15T15:22:05;16.30;1.00
3976;DHT22;2002;48.812;9.180;2023-01-15T15:24:34;16.20;1.00
3976;DHT22;2002;48.812;9.180;2023-01-15T15:27:22;16.20;1.00
3976;DHT22;2002;48.812;9.180;2023-01-15T15:29:49;16.20;1.00
3976;DHT22;2002;48.812;9.180;2023-01-15T15:32:19;16.20;1.00
3976;DHT22;2002;48.812;9.180;2023-01-15T15:34:49;16.10;1.00
3976;DHT22;2002;48.812;9.180;2023-01-15T15:37:24;16.10;1.00
3976;DHT22;2002;48.812;9.180;2023-01-15T15:40:16;16.10;1.00
3976;DHT22;2002;48.812;9.180;2023-01-15T15:42:50;16.10;1.00
3976;DHT22;2002;48.812;9.180;2023-01-15T15:45:37;16.10;1.00
3976;DHT22;2002;48.812;9.180;2023-01-15T15:48:30;16.10;1.00
3976;DHT22;2002;48.812;9.180;2023-01-15T15:53:49;16.10;1.00
3976;DHT22;2002;48.812;9.180;2023-01-15T15:56:15;16.00;1.00
3976;DHT22;2002;48.812;9.180;2023-01-15T15:58:41;16.10;1.00
3976;DHT22;2002;48.812;9.180;2023-01-15T16:01:12;16.00;1.00
3976;DHT22;2002;48.812;9.180;2023-01-15T16:03:45;16.00;1.00
3976;DHT22;2002;48.812;9.180;2023-01-15T16:06:20;16.00;1.00
3976;DHT22;2002;48.812;9.180;2023-01-15T16:08:54;16.00;1.00
3976;DHT22;2002;48.812;9.180;2023-01-15T16:11:22;16.00;1.00
3976;DHT22;2002;48.812;9.180;2023-01-15T16:13:50;16.00;1.00
3976;DHT22;2002;48.812;9.180;2023-01-15T16:16:17;16.00;1.00
3976;DHT22;2002;48.812;9.180;2023-01-15T16:18:48;16.00;1.00
3976;DHT22;2002;48.812;9.180;2023-01-15T16:21:27;16.00;1.00
3976;DHT22;2002;48.812;9.180;2023-01-15T16:24:07;16.10;1.00
3976;DHT22;2002;48.812;9.180;2023-01-15T16:29:04;16.60;1.00
3976;DHT22;2002;48.812;9.180;2023-01-15T16:31:34;16.70;1.00
3976;DHT22;2002;48.812;9.180;2023-01-15T16:34:00;16.70;1.00
3976;DHT22;2002;48.812;9.180;2023-01-15T16:36:27;16.80;1.00
3976;DHT22;2002;48.812;9.180;2023-01-15T16:38:53;16.70;1.00
3976;DHT22;2002;48.812;9.180;2023-01-15T16:41:27;16.70;1.00
3976;DHT22;2002;48.812;9.180;2023-01-15T16:44:00;16.60;1.00
3976;DHT22;2002;48.812;9.180;2023-01-15T16:46:37;16.60;1.00
3976;DHT22;2002;48.812;9.180;2023-01-15T16:51:45;16.50;1.00
3976;DHT22;2002;48.812;9.180;2023-01-15T16:57:11;16.40;1.00
3976;DHT22;2002;48.812;9.180;2023-01-15T16:59:54;16.40;1.00
3976;DHT22;2002;48.812;9.180;2023-01-15T17:02:20;16.30;1.00
3976;DHT22;2002;48.812;9.180;2023-01-15T17:04:47;16.30;1.00
3976;DHT22;2002;48.812;9.180;2023-01-15T17:09:43;16.30;1.00
3976;DHT22;2002;48.812;9.180;2023-01-15T17:12:38;16.20;1.00
3976;DHT22;2002;48.812;9.180;2023-01-15T17:17:53;16.20;1.00
3976;DHT22;2002;48.812;9.180;2023-01-15T17:20:21;16.20;1.00
3976;DHT22;2002;48.812;9.180;2023-01-15T17:22:51;16.10;1.00
3976;DHT22;2002;48.812;9.180;2023-01-15T17:25:25;16.20;1.00
3976;DHT22;2002;48.812;9.180;2023-01-15T17:27:53;16.10;1.00
3976;DHT22;2002;48.812;9.180;2023-01-15T17:30:19;16.20;1.00
3976;DHT22;2002;48.812;9.180;2023-01-15T17:32:44;16.10;1.00
3976;DHT22;2002;48.812;9.180;2023-01-15T17:35:29;16.10;1.00
3976;DHT22;2002;48.812;9.180;2023-01-15T17:37:55;16.10;1.00
3976;DHT22;2002;48.812;9.180;2023-01-15T17:40:21;16.00;1.00
3976;DHT22;2002;48.812;9.180;2023-01-15T17:42:47;16.00;1.00
3976;DHT22;2002;48.812;9.180;2023-01-15T17:45:20;16.00;1.00
3976;DHT22;2002;48.812;9.180;2023-01-15T17:47:46;16.00;1.00
3976;DHT22;2002;48.812;9.180;2023-01-15T17:50:13;16.00;1.00
3976;DHT22;2002;48.812;9.180;2023-01-15T17:52:39;16.00;1.00
3976;DHT22;2002;48.812;9.180;2023-01-15T17:55:05;16.00;1.00
3976;DHT22;2002;48.812;9.180;2023-01-15T17:57:49;16.00;1.00
3976;DHT22;2002;48.812;9.180;2023-01-15T18:00:33;16.00;1.00
3976;DHT22;2002;48.812;9.180;2023-01-15T18:03:20;16.00;1.00
3976;DHT22;2002;48.812;9.180;2023-01-15T18:06:05;15.90;1.00
3976;DHT22;2002;48.812;9.180;2023-01-15T18:08:32;16.00;1.00
3976;DHT22;2002;48.812;9.180;2023-01-15T18:10:58;16.10;1.00
3976;DHT22;2002;48.812;9.180;2023-01-15T18:13:24;16.30;1.00
3976;DHT22;2002;48.812;9.180;2023-01-15T18:15:49;16.60;1.00
3976;DHT22;2002;48.812;9.180;2023-01-15T18:18:17;16.80;1.00
3976;DHT22;2002;48.812;9.180;2023-01-15T18:20:42;17.10;1.00
3976;DHT22;2002;48.812;9.180;2023-01-15T18:23:08;17.00;1.00
3976;DHT22;2002;48.812;9.180;2023-01-15T18:25:34;16.90;1.00
3976;DHT22;2002;48.812;9.180;2023-01-15T18:27:59;16.90;1.00
3976;DHT22;2002;48.812;9.180;2023-01-15T18:30:25;16.90;1.00
3976;DHT22;2002;48.812;9.180;2023-01-15T18:32:51;16.80;1.00
3976;DHT22;2002;48.812;9.180;2023-01-15T18:35:16;16.80;1.00
3976;DHT22;2002;48.812;9.180;2023-01-15T18:37:43;16.70;1.00
3976;DHT22;2002;48.812;9.180;2023-01-15T18:40:09;16.60;1.00